Time;durP1;ratioP1;P1;durP2;ratioP2;P2;SDS_P1;SDS_P2;PMS_P1;PMS_P2;Temp;Humidity;BMP_temperature;BMP_pressure;BME280_temperature;BME280_humidity;BME280_pressure;Samples;Min_cycle;Max_cycle;Signal;HPM_P1;HPM_P2
2022/12/11 00:01:13;;;;;;;26.50;14.73;;;-0.40;99.90;;;;;;4974678;28;20311;-74
2022/12/11 00:03:38;;;;;;;22.00;13.05;;;-0.40;99.90;;;;;;4992280;28;20183;-74
2022/12/11 00:06:09;;;;;;;20.77;11.90;;;-0.40;99.90;;;;;;4974639;28;20316;-74
2022/12/11 00:08:35;;;;;;;17.38;11.80;;;-0.30;99.90;;;;;;4974125;28;20220;-74
2022/12/11 00:11:02;;;;;;;19.15;13.02;;;-0.30;99.90;;;;;;4991352;28;20767;-74
2022/12/11 00:13:28;;;;;;;20.45;13.25;;;-0.30;99.90;;;;;;4991369;28;20562;-74
2022/12/11 00:15:53;;;;;;;20.48;13.95;;;-0.30;99.90;;;;;;4991346;28;20193;-74
2022/12/11 00:18:19;;;;;;;18.27;12.03;;;-0.40;99.90;;;;;;4991291;28;20605;-74
2022/12/11 00:20:45;;;;;;;14.43;10.53;;;-0.40;99.90;;;;;;4991260;28;20226;-74
2022/12/11 00:23:10;;;;;;;18.53;12.03;;;-0.40;99.90;;;;;;4973525;28;20178;-74
2022/12/11 00:25:46;;;;;;;21.23;13.30;;;-0.40;99.90;;;;;;4991469;28;20178;-74
2022/12/11 00:28:14;;;;;;;20.10;12.70;;;-0.40;99.90;;;;;;4991489;28;20195;-75
2022/12/11 00:30:41;;;;;;;20.20;11.32;;;-0.40;99.90;;;;;;4974166;28;20215;-74
2022/12/11 00:33:08;;;;;;;20.90;12.75;;;-0.50;99.90;;;;;;4991240;28;20277;-74
2022/12/11 00:35:41;;;;;;;18.58;11.95;;;-0.50;99.90;;;;;;4991480;28;20186;-74
2022/12/11 00:38:07;;;;;;;21.13;12.82;;;-0.50;99.90;;;;;;4973774;28;20209;-74
2022/12/11 00:40:36;;;;;;;19.70;12.40;;;-0.50;99.90;;;;;;4991109;28;20202;-74
2022/12/11 00:43:02;;;;;;;22.77;12.90;;;-0.50;99.90;;;;;;4991406;28;20413;-74
2022/12/11 00:45:28;;;;;;;21.02;12.48;;;-0.50;99.90;;;;;;4991143;28;20193;-74
2022/12/11 00:47:53;;;;;;;19.60;11.87;;;-0.50;99.90;;;;;;4991099;28;20579;-74
2022/12/11 00:50:19;;;;;;;20.40;12.60;;;-0.50;99.90;;;;;;4973273;28;20255;-74
2022/12/11 00:52:44;;;;;;;19.23;11.80;;;-0.50;99.90;;;;;;4973685;28;20190;-74
2022/12/11 00:55:10;;;;;;;19.43;11.50;;;-0.50;99.90;;;;;;4961308;28;20182;-74
2022/12/11 00:57:36;;;;;;;17.30;10.50;;;-0.50;99.90;;;;;;4998357;28;20605;-75
2022/12/11 01:00:06;;;;;;;21.03;11.67;;;-0.50;99.90;;;;;;4998287;28;20216;-74
2022/12/11 01:02:32;;;;;;;18.15;12.13;;;-0.50;99.90;;;;;;4992109;28;20193;-75
2022/12/11 01:04:57;;;;;;;19.73;12.10;;;-0.50;99.90;;;;;;4991966;28;20183;-74
2022/12/11 01:07:23;;;;;;;16.80;11.40;;;-0.40;99.90;;;;;;4974814;28;20181;-75
2022/12/11 01:12:33;;;;;;;18.02;12.88;;;-0.40;99.90;;;;;;4976899;28;20211;-75
2022/12/11 01:14:58;;;;;;;22.87;14.17;;;-0.40;99.90;;;;;;4973870;28;20186;-75
2022/12/11 01:17:24;;;;;;;20.77;13.03;;;-0.40;99.90;;;;;;4991150;28;20198;-75
2022/12/11 01:19:52;;;;;;;20.87;12.97;;;-0.40;99.90;;;;;;4990631;28;20186;-74
2022/12/11 01:22:17;;;;;;;18.40;12.05;;;-0.40;99.90;;;;;;4990406;28;20248;-74
2022/12/11 01:24:43;;;;;;;18.97;11.87;;;-0.40;99.90;;;;;;4990270;28;20186;-74
2022/12/11 01:27:08;;;;;;;23.20;13.50;;;-0.50;99.90;;;;;;4990470;28;20202;-74
2022/12/11 01:29:34;;;;;;;21.80;13.27;;;-0.60;99.90;;;;;;4990257;28;20269;-74
2022/12/11 01:31:59;;;;;;;26.60;14.90;;;-0.80;99.90;;;;;;4989855;28;20990;-74
2022/12/11 01:34:32;;;;;;;21.97;13.27;;;-0.80;99.90;;;;;;4989022;28;20183;-74
2022/12/11 01:36:57;;;;;;;21.38;14.25;;;-0.80;99.90;;;;;;4972388;28;20189;-74
2022/12/11 01:39:23;;;;;;;22.97;14.70;;;-0.70;99.90;;;;;;4989900;28;20676;-74
2022/12/11 01:41:49;;;;;;;26.93;14.93;;;-0.60;99.90;;;;;;4972341;28;20218;-74
2022/12/11 01:44:14;;;;;;;26.63;16.07;;;-0.60;99.90;;;;;;4989767;28;20971;-74
2022/12/11 01:46:40;;;;;;;26.10;15.17;;;-0.50;99.90;;;;;;4989781;28;20397;-74
2022/12/11 01:49:14;;;;;;;24.00;14.65;;;-0.50;99.90;;;;;;4990052;28;20184;-74
2022/12/11 01:51:51;;;;;;;20.98;13.85;;;-0.50;99.90;;;;;;4989761;28;20214;-74
2022/12/11 01:54:20;;;;;;;24.02;15.43;;;-0.40;99.90;;;;;;4989952;28;20186;-74
2022/12/11 01:56:47;;;;;;;25.30;14.98;;;-0.50;99.90;;;;;;4989793;28;20683;-74
2022/12/11 01:59:16;;;;;;;20.48;12.27;;;-0.50;99.90;;;;;;4989720;28;20181;-74
2022/12/11 02:01:45;;;;;;;20.67;12.18;;;-0.50;99.90;;;;;;4989707;28;20225;-74
2022/12/11 02:04:13;;;;;;;23.05;14.05;;;-0.50;99.90;;;;;;4989626;28;20263;-74
2022/12/11 02:06:49;;;;;;;22.50;13.27;;;-0.50;99.90;;;;;;4955794;28;20284;-74
2022/12/11 02:09:22;;;;;;;24.70;15.48;;;-0.40;99.90;;;;;;4989424;28;20628;-74
2022/12/11 02:12:00;;;;;;;27.95;15.63;;;-0.40;99.90;;;;;;4989421;28;20590;-74
2022/12/11 02:14:37;;;;;;;22.63;13.55;;;-0.30;99.90;;;;;;4989948;28;20183;-74
2022/12/11 02:17:08;;;;;;;22.40;14.05;;;-0.30;99.90;;;;;;4989811;28;20660;-74
2022/12/11 02:19:43;;;;;;;24.55;15.10;;;-0.30;99.90;;;;;;4974128;28;20199;-74
2022/12/11 02:22:20;;;;;;;27.00;16.13;;;-0.30;99.90;;;;;;4989382;28;20206;-74
2022/12/11 02:24:54;;;;;;;24.38;14.57;;;-0.30;99.90;;;;;;4989518;28;20166;-74
2022/12/11 02:27:36;;;;;;;23.48;15.07;;;-0.30;99.90;;;;;;4971913;28;20205;-74
2022/12/11 02:30:12;;;;;;;24.60;15.13;;;-0.30;99.90;;;;;;4989462;28;20970;-74
2022/12/11 02:32:46;;;;;;;24.00;15.63;;;-0.30;99.90;;;;;;4989017;28;20248;-74
2022/12/11 02:35:32;;;;;;;27.13;15.10;;;-0.30;99.90;;;;;;4989005;28;20184;-74
2022/12/11 02:38:28;;;;;;;26.67;14.60;;;-0.40;99.90;;;;;;4989298;28;20194;-74
2022/12/11 02:40:56;;;;;;;25.70;15.15;;;-0.50;99.90;;;;;;4988944;28;20217;-74
2022/12/11 02:43:24;;;;;;;25.95;15.38;;;-0.50;99.90;;;;;;4989054;28;20575;-74
2022/12/11 02:45:51;;;;;;;26.63;15.45;;;-0.50;99.90;;;;;;4990258;28;20669;-74
2022/12/11 02:48:17;;;;;;;24.90;14.65;;;-0.50;99.90;;;;;;4975067;28;20646;-74
2022/12/11 02:50:46;;;;;;;27.40;16.57;;;-0.50;99.90;;;;;;4992348;28;20215;-74
2022/12/11 02:53:14;;;;;;;27.05;16.05;;;-0.40;99.90;;;;;;4974775;28;20447;-74
2022/12/11 02:55:41;;;;;;;26.75;15.10;;;-0.50;99.90;;;;;;4959092;28;20579;-74
2022/12/11 02:58:15;;;;;;;27.25;16.40;;;-0.50;99.90;;;;;;4992386;28;20186;-74
2022/12/11 03:00:42;;;;;;;24.73;16.08;;;-0.50;99.90;;;;;;4992272;28;20248;-74
2022/12/11 03:03:08;;;;;;;25.02;15.07;;;-0.50;99.90;;;;;;4992376;28;20554;-74
2022/12/11 03:05:34;;;;;;;26.97;15.83;;;-0.50;99.90;;;;;;4992747;28;20192;-74
2022/12/11 03:08:01;;;;;;;33.33;17.00;;;-0.50;99.90;;;;;;4992165;28;20188;-74
2022/12/11 03:10:26;;;;;;;25.08;14.70;;;-0.50;99.90;;;;;;4974647;28;20201;-74
2022/12/11 03:12:56;;;;;;;24.53;15.40;;;-0.50;99.90;;;;;;4958782;28;20190;-74
2022/12/11 03:15:47;;;;;;;25.45;15.98;;;-0.50;99.90;;;;;;4992319;28;20197;-74
2022/12/11 03:18:34;;;;;;;27.63;16.30;;;-0.40;99.90;;;;;;4973640;28;20194;-74
2022/12/11 03:21:03;;;;;;;24.85;15.75;;;-0.40;99.90;;;;;;4976999;28;20577;-74
2022/12/11 03:23:42;;;;;;;26.80;15.05;;;-0.50;99.90;;;;;;4991836;28;20174;-74
2022/12/11 03:26:12;;;;;;;25.92;15.07;;;-0.50;99.90;;;;;;4991838;28;20192;-74
2022/12/11 03:28:51;;;;;;;24.55;15.15;;;-0.50;99.90;;;;;;4973862;28;20197;-73
2022/12/11 03:31:33;;;;;;;26.05;15.18;;;-0.50;99.90;;;;;;4991943;28;20201;-74
2022/12/11 03:34:02;;;;;;;24.35;13.07;;;-0.40;99.90;;;;;;4974032;28;20212;-74
2022/12/11 03:36:35;;;;;;;23.45;13.80;;;-0.50;99.90;;;;;;4991817;28;20187;-74
2022/12/11 03:39:06;;;;;;;24.80;14.45;;;-0.50;99.90;;;;;;4991632;28;20190;-74
2022/12/11 03:41:33;;;;;;;20.70;13.68;;;-0.50;99.90;;;;;;4991506;28;20218;-74
2022/12/11 03:43:59;;;;;;;17.75;11.43;;;-0.60;99.90;;;;;;4991622;28;20185;-74
2022/12/11 03:46:32;;;;;;;15.70;9.55;;;-0.60;99.90;;;;;;4991529;28;20200;-74
2022/12/11 03:49:02;;;;;;;15.70;9.05;;;-0.70;99.90;;;;;;4991546;28;20178;-74
2022/12/11 03:51:31;;;;;;;17.83;11.43;;;-0.70;99.90;;;;;;4973637;28;20222;-74
2022/12/11 03:53:57;;;;;;;12.27;8.77;;;-0.70;99.90;;;;;;4991249;28;20241;-74
2022/12/11 03:56:25;;;;;;;11.85;8.38;;;-0.80;99.90;;;;;;4991416;28;20213;-74
2022/12/11 03:58:51;;;;;;;10.93;7.47;;;-0.90;99.90;;;;;;4990376;28;20189;-74
2022/12/11 04:01:19;;;;;;;12.33;7.77;;;-1.10;99.90;;;;;;4991357;28;20594;-74
2022/12/11 04:03:45;;;;;;;10.40;7.82;;;-1.10;99.90;;;;;;4957842;28;20298;-74
2022/12/11 04:06:11;;;;;;;10.40;6.90;;;-1.20;99.90;;;;;;4991186;28;20274;-74
2022/12/11 04:08:36;;;;;;;12.23;6.90;;;-1.10;99.90;;;;;;4973338;28;20755;-74
2022/12/11 04:15:00;;;;;;;10.93;7.90;;;-1.20;99.90;;;;;;4976439;28;20687;-74
2022/12/11 04:16:33;;;;;;;11.07;7.75;;;-1.30;99.90;;;;;;4990999;28;20205;-74
2022/12/11 04:24:26;;;;;;;15.77;10.15;;;-1.50;99.90;;;;;;4976362;28;20297;-75
2022/12/11 04:26:52;;;;;;;15.20;9.87;;;-1.60;99.90;;;;;;4990849;28;20297;-74
2022/12/11 04:29:17;;;;;;;16.60;10.40;;;-1.60;99.90;;;;;;4957380;28;20269;-74
2022/12/11 04:31:44;;;;;;;17.10;10.50;;;-1.80;99.90;;;;;;4973348;28;20229;-74
2022/12/11 04:34:10;;;;;;;14.80;9.95;;;-1.80;99.90;;;;;;4973394;28;20194;-74
2022/12/11 04:36:36;;;;;;;21.10;11.63;;;-1.90;99.90;;;;;;4991209;28;20218;-74
2022/12/11 04:39:04;;;;;;;19.50;11.55;;;-1.90;99.90;;;;;;4991409;28;20449;-73
2022/12/11 04:41:29;;;;;;;18.00;10.25;;;-1.90;99.90;;;;;;4991289;28;20309;-74
2022/12/11 04:43:55;;;;;;;18.00;10.97;;;-2.00;99.90;;;;;;4973788;28;20272;-74
2022/12/11 04:46:22;;;;;;;17.17;10.30;;;-2.00;99.90;;;;;;4958671;28;20193;-74
2022/12/11 04:48:49;;;;;;;16.38;11.23;;;-2.00;99.90;;;;;;4991241;28;20212;-74
2022/12/11 04:51:15;;;;;;;12.25;8.32;;;-2.00;99.90;;;;;;4991114;28;20340;-74
2022/12/11 04:53:41;;;;;;;17.15;10.30;;;-2.00;99.90;;;;;;4990995;28;20261;-75
2022/12/11 04:56:09;;;;;;;13.07;8.83;;;-2.10;99.90;;;;;;4990639;28;20708;-74
2022/12/11 04:58:35;;;;;;;13.40;8.93;;;-2.20;99.90;;;;;;4972719;28;20456;-74
2022/12/11 05:01:09;;;;;;;10.35;7.22;;;-2.20;99.90;;;;;;4990299;28;20224;-74
2022/12/11 05:03:35;;;;;;;10.70;6.47;;;-2.40;99.90;;;;;;4990298;28;20209;-74
2022/12/11 05:06:01;;;;;;;10.43;7.37;;;-2.30;99.90;;;;;;4990475;28;20184;-73
2022/12/11 05:08:27;;;;;;;18.40;10.00;;;-2.10;99.90;;;;;;4990259;28;20661;-74
2022/12/11 05:11:01;;;;;;;16.67;11.10;;;-2.10;99.90;;;;;;4972401;28;20275;-74
2022/12/11 05:13:28;;;;;;;25.50;13.45;;;-1.90;99.90;;;;;;4972101;28;20448;-74
2022/12/11 05:15:54;;;;;;;20.17;12.50;;;-1.70;99.90;;;;;;4972192;28;20192;-74
2022/12/11 05:18:20;;;;;;;24.75;13.73;;;-1.70;99.90;;;;;;4989673;28;20182;-74
2022/12/11 05:20:58;;;;;;;21.60;13.13;;;-1.60;99.90;;;;;;4989558;28;20793;-74
2022/12/11 05:23:24;;;;;;;20.13;12.77;;;-1.50;99.90;;;;;;4972271;28;20280;-73
2022/12/11 05:25:54;;;;;;;22.27;13.95;;;-1.50;99.90;;;;;;4989730;28;20174;-73
2022/12/11 05:28:21;;;;;;;22.52;13.68;;;-1.40;99.90;;;;;;4971980;28;20182;-73
2022/12/11 05:30:47;;;;;;;22.00;13.57;;;-1.30;99.90;;;;;;4989784;28;20214;-74
2022/12/11 05:33:12;;;;;;;22.50;13.00;;;-1.30;99.90;;;;;;4989421;28;20209;-73
2022/12/11 05:35:38;;;;;;;23.97;12.67;;;-1.30;99.90;;;;;;4989547;28;20189;-74
2022/12/11 05:38:04;;;;;;;19.00;11.80;;;-1.30;99.90;;;;;;4972081;28;20681;-74
2022/12/11 05:40:29;;;;;;;18.80;11.20;;;-1.30;99.90;;;;;;4955731;28;20214;-73
2022/12/11 05:42:55;;;;;;;22.20;12.50;;;-1.30;99.90;;;;;;4989516;28;20186;-74
2022/12/11 05:45:20;;;;;;;19.13;11.83;;;-1.30;99.90;;;;;;4972060;28;20181;-73
2022/12/11 05:47:46;;;;;;;19.97;12.07;;;-1.40;99.90;;;;;;4972062;28;20190;-73
2022/12/11 05:50:11;;;;;;;18.10;11.30;;;-1.30;99.90;;;;;;4989631;28;20364;-73
2022/12/11 05:52:37;;;;;;;15.93;10.10;;;-1.30;99.90;;;;;;4989580;28;20787;-74
2022/12/11 05:55:03;;;;;;;20.17;10.80;;;-1.30;99.90;;;;;;4989521;28;20190;-74
2022/12/11 05:57:28;;;;;;;19.33;11.20;;;-1.40;99.90;;;;;;4989649;28;20191;-74
2022/12/11 05:59:54;;;;;;;19.60;11.50;;;-1.30;99.90;;;;;;4989926;28;20436;-73
2022/12/11 06:02:20;;;;;;;18.23;10.93;;;-1.30;99.90;;;;;;4989858;28;20230;-73
2022/12/11 06:04:45;;;;;;;17.67;11.40;;;-1.50;99.90;;;;;;4956431;28;20557;-73
2022/12/11 06:07:11;;;;;;;18.70;11.87;;;-1.40;99.90;;;;;;4972325;28;20186;-74
2022/12/11 06:09:36;;;;;;;24.00;12.53;;;-1.40;99.90;;;;;;4990237;28;20265;-74
2022/12/11 06:12:02;;;;;;;15.97;10.10;;;-1.50;99.90;;;;;;4972078;28;20692;-73
2022/12/11 06:14:27;;;;;;;20.97;11.67;;;-1.60;99.90;;;;;;4990060;28;20293;-74
2022/12/11 06:16:53;;;;;;;16.93;9.70;;;-1.50;99.90;;;;;;4972215;28;20204;-74
2022/12/11 06:19:19;;;;;;;15.77;9.93;;;-1.60;99.90;;;;;;4989712;28;20554;-74
2022/12/11 06:21:45;;;;;;;15.70;9.17;;;-1.80;99.90;;;;;;4992327;28;20220;-74
2022/12/11 06:24:11;;;;;;;18.65;10.98;;;-1.90;99.90;;;;;;4994340;28;20174;-74
2022/12/11 06:26:36;;;;;;;16.20;10.20;;;-1.80;99.90;;;;;;4994685;28;20177;-74
2022/12/11 06:29:02;;;;;;;17.27;9.63;;;-1.70;99.90;;;;;;4994562;28;20244;-74
2022/12/11 06:31:27;;;;;;;14.80;9.53;;;-1.80;99.90;;;;;;4976359;28;20245;-75
2022/12/11 06:33:53;;;;;;;14.73;9.23;;;-1.80;99.90;;;;;;4994035;28;20189;-75
2022/12/11 06:36:21;;;;;;;15.00;9.03;;;-1.80;99.90;;;;;;4976469;28;20261;-74
2022/12/11 06:38:47;;;;;;;13.88;8.88;;;-1.90;99.90;;;;;;4994516;28;20950;-74
2022/12/11 06:41:13;;;;;;;15.70;9.37;;;-1.90;99.90;;;;;;4993869;28;20221;-74
2022/12/11 06:43:40;;;;;;;16.45;10.43;;;-1.90;99.90;;;;;;4976201;28;20206;-75
2022/12/11 06:46:07;;;;;;;19.48;10.27;;;-1.80;99.90;;;;;;4992816;28;20177;-74
2022/12/11 06:48:33;;;;;;;19.98;11.20;;;-1.80;99.90;;;;;;4992727;28;20182;-74
2022/12/11 06:51:03;;;;;;;12.53;8.23;;;-1.90;99.90;;;;;;4974945;28;20214;-74
2022/12/11 06:53:28;;;;;;;15.20;9.20;;;-1.90;99.90;;;;;;4992972;28;20787;-74
2022/12/11 06:55:54;;;;;;;15.83;9.60;;;-1.90;99.90;;;;;;4992686;28;20173;-74
2022/12/11 06:58:19;;;;;;;17.07;10.70;;;-1.90;99.90;;;;;;4974934;28;20217;-74
2022/12/11 07:00:45;;;;;;;16.30;9.43;;;-1.80;99.90;;;;;;4975041;28;20222;-74
2022/12/11 07:03:12;;;;;;;13.10;8.30;;;-1.80;99.90;;;;;;4974705;28;20196;-74
2022/12/11 07:05:38;;;;;;;15.35;10.50;;;-1.90;99.90;;;;;;4992313;28;20298;-74
2022/12/11 07:08:03;;;;;;;14.57;9.97;;;-1.90;99.90;;;;;;4974857;28;20289;-74
2022/12/11 07:10:29;;;;;;;13.37;8.50;;;-2.10;99.90;;;;;;4992151;28;20185;-73
2022/12/11 07:12:55;;;;;;;15.87;9.03;;;-2.10;99.90;;;;;;4959691;28;20182;-73
2022/12/11 07:15:20;;;;;;;18.47;10.27;;;-2.20;99.90;;;;;;4974635;28;20195;-73
2022/12/11 07:17:46;;;;;;;18.80;9.70;;;-2.10;99.90;;;;;;4992096;28;20183;-74
2022/12/11 07:20:11;;;;;;;18.40;11.43;;;-2.10;99.90;;;;;;4992144;28;20282;-73
2022/12/11 07:22:37;;;;;;;19.73;10.60;;;-2.10;99.90;;;;;;4991827;28;20684;-73
2022/12/11 07:25:03;;;;;;;24.27;11.50;;;-2.10;99.90;;;;;;4992000;28;20205;-73
2022/12/11 07:27:29;;;;;;;22.60;10.60;;;-2.20;99.90;;;;;;4991904;28;20268;-73
2022/12/11 07:29:54;;;;;;;18.73;10.87;;;-2.20;99.90;;;;;;4991818;28;20770;-72
2022/12/11 07:32:20;;;;;;;18.47;11.40;;;-2.20;99.90;;;;;;4972726;28;20221;-73
2022/12/11 07:34:47;;;;;;;36.22;20.27;;;-2.20;99.90;;;;;;4991713;28;20731;-73
2022/12/11 07:37:13;;;;;;;28.83;15.68;;;-2.20;99.90;;;;;;4991735;28;20210;-73
2022/12/11 07:39:39;;;;;;;32.03;15.90;;;-2.10;99.90;;;;;;4973863;28;20284;-73
2022/12/11 07:42:05;;;;;;;23.10;12.87;;;-2.20;99.90;;;;;;4957729;28;20468;-73
2022/12/11 07:44:30;;;;;;;20.20;11.53;;;-2.20;99.90;;;;;;4991616;28;20877;-73
2022/12/11 07:46:56;;;;;;;16.90;10.97;;;-2.30;99.90;;;;;;4991446;28;20533;-73
2022/12/11 07:49:21;;;;;;;16.40;10.43;;;-2.40;99.90;;;;;;4991433;28;20433;-73
2022/12/11 07:51:47;;;;;;;15.60;10.00;;;-2.50;99.90;;;;;;4991339;28;20235;-72
2022/12/11 07:54:15;;;;;;;14.27;8.77;;;-2.60;99.90;;;;;;4957727;28;20240;-72
2022/12/11 07:56:48;;;;;;;14.52;8.77;;;-2.60;99.90;;;;;;4991326;28;20305;-72
2022/12/11 07:59:15;;;;;;;17.00;8.68;;;-2.40;99.90;;;;;;4991162;28;20182;-73
2022/12/11 08:01:41;;;;;;;12.20;8.68;;;-1.80;99.90;;;;;;4990985;28;20240;-73
2022/12/11 08:04:09;;;;;;;15.13;9.30;;;-0.70;99.90;;;;;;4973554;28;20189;-73
2022/12/11 08:06:37;;;;;;;12.13;8.27;;;0.00;99.90;;;;;;4990906;28;20187;-73
2022/12/11 08:09:07;;;;;;;13.48;9.23;;;0.20;99.90;;;;;;4990830;28;20325;-73
2022/12/11 08:11:33;;;;;;;12.88;9.23;;;0.50;99.90;;;;;;4973279;28;20236;-73
2022/12/11 08:13:59;;;;;;;15.10;9.48;;;0.70;99.90;;;;;;4990802;28;20237;-73
2022/12/11 08:16:26;;;;;;;16.10;10.90;;;1.60;99.90;;;;;;4990875;28;20689;-73
2022/12/11 08:18:52;;;;;;;17.95;12.60;;;1.40;99.90;;;;;;4973164;28;20187;-73
2022/12/11 08:21:20;;;;;;;16.00;9.80;;;1.10;99.90;;;;;;4991131;28;20234;-73
2022/12/11 08:23:45;;;;;;;19.90;12.30;;;0.70;99.90;;;;;;4990462;28;20480;-73
2022/12/11 08:26:14;;;;;;;21.13;10.73;;;0.70;99.90;;;;;;4990454;28;20187;-73
2022/12/11 08:28:40;;;;;;;16.73;10.77;;;1.00;99.90;;;;;;4990526;28;20217;-73
2022/12/11 08:31:08;;;;;;;16.07;9.87;;;1.10;99.90;;;;;;4990251;28;20262;-73
2022/12/11 08:33:35;;;;;;;19.20;11.43;;;1.50;99.90;;;;;;4990281;28;20208;-73
2022/12/11 08:36:06;;;;;;;20.02;11.38;;;1.10;99.90;;;;;;4990339;28;20195;-73
2022/12/11 08:38:32;;;;;;;18.98;10.98;;;1.10;99.90;;;;;;4990296;28;20225;-73
2022/12/11 08:40:57;;;;;;;15.38;9.70;;;1.70;99.90;;;;;;4990173;28;20225;-73
2022/12/11 08:43:23;;;;;;;26.63;14.00;;;1.50;99.90;;;;;;4989762;28;20186;-73
2022/12/11 08:45:49;;;;;;;25.58;14.00;;;1.20;99.90;;;;;;4990324;28;20179;-73
2022/12/11 08:48:15;;;;;;;22.30;13.97;;;0.90;99.90;;;;;;4990137;28;20688;-73
2022/12/11 08:50:44;;;;;;;24.77;14.02;;;1.00;99.90;;;;;;4972430;28;20456;-73
2022/12/11 08:53:09;;;;;;;18.63;11.98;;;1.20;99.90;;;;;;4990176;28;20221;-73
2022/12/11 08:55:35;;;;;;;14.97;10.50;;;1.50;99.90;;;;;;4972378;28;20209;-73
2022/12/11 08:58:01;;;;;;;14.27;8.80;;;1.50;99.90;;;;;;4972594;28;20240;-73
2022/12/11 09:00:26;;;;;;;14.13;8.70;;;1.10;99.90;;;;;;4989737;28;20752;-73
2022/12/11 09:02:52;;;;;;;13.97;8.83;;;0.90;99.90;;;;;;4990095;28;20190;-73
2022/12/11 09:05:17;;;;;;;11.50;7.97;;;0.80;99.90;;;;;;4989906;28;20236;-73
2022/12/11 09:07:43;;;;;;;12.60;7.50;;;0.80;99.90;;;;;;4990055;28;20261;-73
2022/12/11 09:10:09;;;;;;;10.93;6.83;;;0.60;99.90;;;;;;4989987;28;20183;-73
2022/12/11 09:12:35;;;;;;;14.13;10.63;;;0.70;99.90;;;;;;4989774;28;20206;-73
2022/12/11 09:15:02;;;;;;;12.98;8.20;;;0.80;99.90;;;;;;4989727;28;20177;-73
2022/12/11 09:17:28;;;;;;;12.40;8.15;;;0.80;99.90;;;;;;4972382;28;20192;-73
2022/12/11 09:19:53;;;;;;;11.70;8.23;;;0.80;99.90;;;;;;4989618;28;20186;-73
2022/12/11 09:22:19;;;;;;;18.23;10.07;;;0.80;99.90;;;;;;4955781;28;20229;-73
2022/12/11 09:24:45;;;;;;;11.93;7.60;;;0.70;99.90;;;;;;4989599;28;20186;-73
2022/12/11 09:27:11;;;;;;;13.65;8.52;;;0.90;99.90;;;;;;4972210;28;20178;-73
2022/12/11 09:29:38;;;;;;;11.73;7.80;;;1.70;99.90;;;;;;4989539;28;20249;-73
2022/12/11 09:32:04;;;;;;;12.57;8.05;;;2.60;99.90;;;;;;4989225;28;20222;-73
2022/12/11 09:34:30;;;;;;;11.80;7.00;;;3.50;99.90;;;;;;4989478;28;20206;-73
2022/12/11 09:36:55;;;;;;;12.87;7.50;;;3.80;99.00;;;;;;4989494;28;20928;-74
2022/12/11 09:39:22;;;;;;;14.02;8.63;;;3.80;96.30;;;;;;4973783;28;20249;-73
2022/12/11 09:42:05;;;;;;;10.70;7.20;;;3.50;97.30;;;;;;4989977;28;20243;-73
2022/12/11 09:44:43;;;;;;;12.63;8.57;;;3.20;96.70;;;;;;4990462;28;20233;-73
2022/12/11 09:47:16;;;;;;;14.40;8.70;;;2.60;97.00;;;;;;4990381;28;20188;-73
2022/12/11 09:49:45;;;;;;;16.05;8.02;;;2.60;98.90;;;;;;4972817;28;20224;-74
2022/12/11 09:52:16;;;;;;;14.27;8.43;;;2.70;97.50;;;;;;4990231;28;20206;-74
2022/12/11 09:55:04;;;;;;;11.63;8.38;;;2.60;98.30;;;;;;4973140;28;20543;-74
2022/12/11 09:57:48;;;;;;;13.90;8.60;;;2.70;98.20;;;;;;4990317;28;20250;-75
2022/12/11 10:00:31;;;;;;;12.38;8.40;;;2.60;99.70;;;;;;4990179;28;20275;-74
2022/12/11 10:03:18;;;;;;;15.23;9.05;;;2.30;99.10;;;;;;4989933;28;20185;-74
2022/12/11 10:06:33;;;;;;;9.80;7.10;;;2.20;99.20;;;;;;4972725;28;20177;-74
2022/12/11 10:09:26;;;;;;;13.23;8.30;;;2.00;99.90;;;;;;4879509;28;20198;-74
2022/12/11 10:12:06;;;;;;;13.50;8.30;;;1.80;99.90;;;;;;4972084;28;20696;-74
2022/12/11 10:14:43;;;;;;;12.10;7.03;;;1.60;99.90;;;;;;4989687;28;20751;-74
2022/12/11 10:17:17;;;;;;;14.60;8.68;;;1.50;99.90;;;;;;4989790;28;20210;-74
2022/12/11 10:19:42;;;;;;;14.05;9.38;;;1.30;99.90;;;;;;4989508;28;20197;-74
2022/12/11 10:22:25;;;;;;;15.80;9.20;;;1.30;99.90;;;;;;4989339;28;20221;-74
2022/12/11 10:24:59;;;;;;;10.90;7.65;;;1.20;99.90;;;;;;4989351;28;20179;-74
2022/12/11 10:27:32;;;;;;;13.63;8.90;;;1.10;99.90;;;;;;4989561;28;20189;-74
2022/12/11 10:30:24;;;;;;;11.65;7.85;;;0.90;99.90;;;;;;4971822;28;20171;-74
2022/12/11 10:33:03;;;;;;;14.98;8.05;;;0.90;99.90;;;;;;4989272;28;20217;-74
2022/12/11 10:35:44;;;;;;;18.23;11.15;;;0.90;99.90;;;;;;4971633;28;20171;-74
2022/12/11 10:38:20;;;;;;;29.00;14.05;;;0.90;99.90;;;;;;4989388;28;20188;-74
2022/12/11 10:40:53;;;;;;;17.75;11.02;;;0.80;99.90;;;;;;4971706;28;20591;-74
2022/12/11 10:43:19;;;;;;;13.65;8.38;;;0.80;99.90;;;;;;4989674;28;20194;-74
2022/12/11 10:45:54;;;;;;;14.23;8.80;;;0.70;99.90;;;;;;4988991;28;20185;-74
2022/12/11 10:48:20;;;;;;;16.15;9.35;;;0.50;99.90;;;;;;4989178;28;20844;-74
2022/12/11 10:51:01;;;;;;;12.30;8.20;;;0.50;99.90;;;;;;4971291;28;20220;-74
2022/12/11 10:53:28;;;;;;;12.57;8.65;;;0.50;99.90;;;;;;4989329;28;20528;-74
2022/12/11 10:55:56;;;;;;;15.13;8.57;;;0.60;99.90;;;;;;4972098;28;20188;-74
2022/12/11 10:58:25;;;;;;;10.93;7.65;;;0.70;99.90;;;;;;4989222;28;20202;-74
2022/12/11 11:01:19;;;;;;;12.13;7.72;;;0.70;99.90;;;;;;4988963;28;20220;-75
2022/12/11 11:04:14;;;;;;;13.40;7.80;;;0.90;99.90;;;;;;4989080;28;20173;-75
2022/12/11 11:06:40;;;;;;;14.65;8.20;;;1.10;99.90;;;;;;4955228;28;20192;-75
2022/12/11 11:09:32;;;;;;;13.53;7.73;;;1.30;99.90;;;;;;4975146;28;20543;-75
2022/12/11 11:11:58;;;;;;;13.48;8.60;;;1.30;99.90;;;;;;4992404;28;20446;-75
2022/12/11 11:14:24;;;;;;;15.43;7.93;;;1.50;99.90;;;;;;4958546;28;20265;-76
2022/12/11 11:16:53;;;;;;;11.10;7.97;;;1.50;99.90;;;;;;4992389;28;20253;-75
2022/12/11 11:19:22;;;;;;;13.75;7.50;;;1.70;99.90;;;;;;4992715;28;20965;-74
2022/12/11 11:21:54;;;;;;;17.15;9.00;;;1.70;99.90;;;;;;4992031;28;20332;-74
2022/12/11 11:24:55;;;;;;;15.23;8.15;;;1.60;99.90;;;;;;4992374;28;20267;-74
2022/12/11 11:27:34;;;;;;;14.88;6.82;;;1.50;99.90;;;;;;4992385;28;20178;-75
2022/12/11 11:30:03;;;;;;;10.43;7.38;;;1.50;99.90;;;;;;4992079;28;20178;-75
2022/12/11 11:32:37;;;;;;;13.63;8.48;;;1.50;99.90;;;;;;4992020;28;20227;-74
2022/12/11 11:35:12;;;;;;;9.77;6.97;;;1.30;99.90;;;;;;4975391;28;20203;-74
2022/12/11 11:37:40;;;;;;;28.38;20.08;;;1.30;99.90;;;;;;4992032;28;20276;-75
2022/12/11 11:40:27;;;;;;;18.23;13.77;;;1.30;99.90;;;;;;4991885;28;20200;-74
2022/12/11 11:43:06;;;;;;;10.55;8.35;;;1.30;99.90;;;;;;4992058;28;20190;-75
2022/12/11 11:45:49;;;;;;;9.90;6.50;;;1.40;99.90;;;;;;4992125;28;20178;-74
2022/12/11 11:48:21;;;;;;;9.73;6.38;;;1.40;99.90;;;;;;4992716;28;20182;-74
2022/12/11 11:50:49;;;;;;;15.85;7.40;;;1.40;99.90;;;;;;4997395;28;20204;-74
2022/12/11 11:53:36;;;;;;;13.77;7.80;;;1.40;99.90;;;;;;4997258;28;20714;-75
2022/12/11 11:56:17;;;;;;;12.80;7.82;;;1.40;99.90;;;;;;4997720;28;20754;-74
2022/12/11 11:59:01;;;;;;;12.38;7.45;;;1.20;99.90;;;;;;5011681;28;20249;-74
2022/12/11 12:01:27;;;;;;;8.85;6.20;;;0.90;99.90;;;;;;4999194;28;20293;-76
2022/12/11 12:03:54;;;;;;;12.27;7.57;;;1.10;99.90;;;;;;5017031;28;20197;-76
2022/12/11 12:06:22;;;;;;;16.15;8.00;;;1.20;99.90;;;;;;4999900;28;20269;-76
2022/12/11 12:09:04;;;;;;;10.95;7.53;;;1.30;99.90;;;;;;4995726;28;20652;-74
2022/12/11 12:11:41;;;;;;;10.23;6.15;;;1.40;99.90;;;;;;4992174;28;20208;-74
2022/12/11 12:14:23;;;;;;;11.15;7.15;;;1.30;99.90;;;;;;4992122;28;20182;-74
2022/12/11 12:17:30;;;;;;;11.82;7.32;;;1.30;99.90;;;;;;4992369;28;20261;-74
2022/12/11 12:20:21;;;;;;;11.52;6.35;;;1.30;99.90;;;;;;4973599;28;20237;-74
2022/12/11 12:23:06;;;;;;;8.60;6.07;;;1.50;99.90;;;;;;4991549;28;20277;-74
2022/12/11 12:25:46;;;;;;;11.27;6.20;;;1.60;99.90;;;;;;4991151;28;20173;-74
2022/12/11 12:28:37;;;;;;;9.60;5.20;;;1.70;99.90;;;;;;4991341;28;20721;-74
2022/12/11 12:31:12;;;;;;;12.02;6.82;;;1.60;99.90;;;;;;4990958;28;20214;-74
2022/12/11 12:34:03;;;;;;;12.25;7.88;;;1.50;99.90;;;;;;4973331;28;20300;-74
2022/12/11 12:36:39;;;;;;;19.17;8.77;;;1.30;99.90;;;;;;4977745;28;20198;-74
2022/12/11 12:39:40;;;;;;;11.73;7.32;;;1.20;99.90;;;;;;4990861;28;20197;-74
2022/12/11 12:42:10;;;;;;;10.98;7.68;;;1.20;99.90;;;;;;4972203;28;20226;-74
2022/12/11 12:44:49;;;;;;;13.13;7.53;;;1.10;99.90;;;;;;4973382;28;20544;-74
2022/12/11 12:47:16;;;;;;;14.52;7.43;;;1.00;99.90;;;;;;4990546;28;20182;-74
2022/12/11 12:49:46;;;;;;;9.63;7.00;;;1.00;99.90;;;;;;4991066;28;20272;-74
2022/12/11 12:52:31;;;;;;;10.32;7.10;;;0.90;99.90;;;;;;4990637;28;20209;-73
2022/12/11 12:55:16;;;;;;;17.63;10.35;;;0.80;99.90;;;;;;4990671;28;20707;-73
2022/12/11 12:57:47;;;;;;;16.02;9.23;;;0.80;99.90;;;;;;4972981;28;20232;-73
2022/12/11 13:00:26;;;;;;;13.77;9.30;;;0.70;99.90;;;;;;4972828;28;20202;-73
2022/12/11 13:02:55;;;;;;;17.92;8.50;;;0.70;99.90;;;;;;4990478;28;20184;-73